Guide — WDE7328 — position and weather

sailwx.info

Track history (hours):
 
Tides and Currents Weather Stations Pressure Air Temp Water Temp Dewpoint Dewpoint Depression Visibility Wind Speed Wind Dir Waves Ship Positions

Guide

Owner: Crowley Marine Services, SEATTLE, WA. More information available from US FCC via Universal Licensing System and Coast Guard Vessel Documentation Center.

Last reported at 2017-Jun-26 18:30 UTC. Time now 2017-Jun-26 18:56 UTC.
Position N 47°18' W 122°27'.

Length 34 m; draft 5.1 m.

Type: Tug. MMSI: 366759530.

Date/timePositionNaut miles runAvg speedWind from/ knotsBaromVisibWave heightAir tempDewpointWater temp
2017-Jun-26 18:30N 47°18' W 122°27'4 7.3
2017-Jun-26 18:00N 47°21' W 122°24'3 6.6
2017-Jun-26 17:31N 47°25' W 122°23'4 8.1
2017-Jun-26 17:00N 47°28' W 122°25'4 7.9
2017-Jun-26 16:31N 47°32' W 122°26'4 7.5
2017-Jun-26 16:00N 47°36' W 122°24'2 4.5
2017-Jun-26 15:30N 47°35' W 122°21'0 0.0
2017-Jun-26 15:00N 47°35' W 122°21'0 0.0
2017-Jun-26 14:30N 47°35' W 122°21'0 0.0
2017-Jun-26 13:30N 47°35' W 122°21'0 0.0
2017-Jun-26 13:00N 47°35' W 122°21'0 0.4
2017-Jun-26 12:30N 47°36' W 122°21'0 0.3
2017-Jun-26 12:00N 47°35' W 122°21'0 0.2
2017-Jun-26 11:30N 47°35' W 122°21'0 0.6
2017-Jun-26 11:00N 47°35' W 122°21'0 0.0
2017-Jun-26 10:30N 47°35' W 122°21'0 0.0
2017-Jun-26 10:00N 47°35' W 122°21'0 0.0
2017-Jun-26 09:30N 47°35' W 122°21'0 0.0
2017-Jun-26 09:00N 47°35' W 122°21'0 0.0
2017-Jun-26 08:30N 47°35' W 122°21'0 0.0
2017-Jun-26 08:00N 47°35' W 122°21'0 0.0
2017-Jun-26 07:30N 47°35' W 122°21'0 0.0
2017-Jun-26 07:00N 47°35' W 122°21'0 0.0
2017-Jun-26 06:30N 47°35' W 122°21'0 0.0
2017-Jun-26 06:00N 47°35' W 122°21'0 0.0
2017-Jun-26 05:30N 47°35' W 122°21'3 5.3
2017-Jun-26 05:01N 47°35' W 122°25'4 8.0
2017-Jun-26 04:31N 47°31' W 122°25'4 8.6
2017-Jun-26 04:00N 47°27' W 122°24'4 8.3
2017-Jun-26 03:30N 47°23' W 122°21'4 7.6
2017-Jun-26 03:00N 47°20' W 122°25'3 6.7
2017-Jun-26 02:30N 47°17' W 122°26'1 2.7
2017-Jun-26 02:00N 47°16' W 122°25'1 1.4
2017-Jun-26 01:30N 47°17' W 122°26'1 1.9
2017-Jun-26 00:56N 47°18' W 122°26'0 0.2
2017-Jun-26 00:25N 47°18' W 122°26'0 0.0
2017-Jun-25 23:58N 47°18' W 122°26'0 0.0
2017-Jun-25 23:30N 47°18' W 122°26'0 0.0
2017-Jun-25 22:59N 47°18' W 122°26'0 0.0
2017-Jun-25 22:30N 47°18' W 122°26'0 0.0
2017-Jun-25 21:58N 47°18' W 122°26'0 0.1
2017-Jun-25 21:30N 47°18' W 122°26'0 0.1
2017-Jun-25 21:00N 47°18' W 122°26'0 0.1
2017-Jun-25 20:26N 47°18' W 122°26'0 0.1
2017-Jun-25 19:53N 47°18' W 122°26'0 0.1
2017-Jun-25 19:30N 47°18' W 122°26'0 0.0
2017-Jun-25 18:59N 47°18' W 122°26'0 0.0
2017-Jun-25 18:30N 47°18' W 122°26'0 0.0
2017-Jun-25 18:00N 47°18' W 122°26'0 0.0
2017-Jun-25 17:30N 47°18' W 122°26'0 0.0
2017-Jun-25 17:00N 47°18' W 122°26'0 0.1
2017-Jun-25 16:25N 47°18' W 122°26'1 3.6
2017-Jun-25 16:00N 47°16' W 122°26'1 1.9
2017-Jun-25 15:30N 47°15' W 122°26'0 0.0
2017-Jun-25 15:00N 47°15' W 122°26'0 0.0
2017-Jun-25 14:30N 47°15' W 122°26'0 0.0
2017-Jun-25 13:30N 47°15' W 122°26'0 0.0
2017-Jun-25 13:00N 47°15' W 122°26'0 0.0
2017-Jun-25 12:30N 47°15' W 122°26'0 0.0
2017-Jun-25 12:00N 47°15' W 122°26'0 0.0
2017-Jun-25 11:30N 47°15' W 122°26'0 0.0
2017-Jun-25 11:00N 47°15' W 122°26'0 0.0
2017-Jun-25 10:30N 47°15' W 122°26'0 0.0
2017-Jun-25 10:00N 47°15' W 122°26'0 0.0
2017-Jun-25 09:30N 47°15' W 122°26'0 0.0
2017-Jun-25 09:00N 47°15' W 122°26'0 0.0
2017-Jun-25 08:30N 47°15' W 122°26'0 0.0
2017-Jun-25 08:00N 47°15' W 122°26'0 0.0
2017-Jun-25 07:30N 47°15' W 122°26'0 0.0
2017-Jun-25 07:00N 47°15' W 122°26'0 0.0
2017-Jun-25 06:30N 47°15' W 122°26'0 0.0
2017-Jun-25 06:00N 47°15' W 122°26'0 0.0
2017-Jun-25 05:30N 47°15' W 122°26'0 0.0
2017-Jun-25 05:00N 47°15' W 122°26'0 0.0
2017-Jun-25 04:30N 47°15' W 122°26'0 0.0
2017-Jun-25 04:00N 47°15' W 122°26'0 0.0
2017-Jun-25 03:30N 47°15' W 122°26'0 0.0
2017-Jun-25 03:00N 47°15' W 122°26'0 0.0
2017-Jun-25 02:30N 47°15' W 122°26'2 3.0
2017-Jun-25 01:59N 47°17' W 122°25'1 1.6
2017-Jun-25 01:24N 47°16' W 122°24'0 0.2
2017-Jun-25 00:58N 47°16' W 122°24'0 0.4
2017-Jun-25 00:30N 47°16' W 122°24'0 0.0
2017-Jun-25 00:00N 47°16' W 122°24'0 0.0
2017-Jun-24 23:30N 47°16' W 122°24'0 0.0
2017-Jun-24 23:00N 47°16' W 122°24'1 1.1
2017-Jun-24 22:30N 47°17' W 122°25'1 1.5
2017-Jun-24 22:00N 47°17' W 122°25'1 1.7
2017-Jun-24 21:30N 47°16' W 122°26'1 1.4
2017-Jun-24 20:41N 47°15' W 122°26'0 0.0
2017-Jun-24 20:29N 47°15' W 122°26'0 0.0
2017-Jun-24 19:59N 47°15' W 122°26'0 0.0
2017-Jun-24 19:08N 47°15' W 122°26'0 0.0
2017-Jun-24 19:00N 47°15' W 122°26'0 0.0
2017-Jun-24 18:28N 47°15' W 122°26'0 0.0
2017-Jun-24 16:59N 47°15' W 122°26'0 0.0
2017-Jun-24 16:19N 47°15' W 122°26'0 0.0
2017-Jun-24 15:56N 47°15' W 122°26'0 0.0
2017-Jun-24 15:29N 47°15' W 122°26'0 0.0
2017-Jun-24 15:00N 47°15' W 122°26'0 0.0
2017-Jun-24 14:00N 47°15' W 122°26'0 0.0
2017-Jun-24 13:30N 47°15' W 122°26'0 0.0
2017-Jun-24 13:00N 47°15' W 122°26'0 0.0
2017-Jun-24 12:30N 47°15' W 122°26'0 0.0
2017-Jun-24 12:00N 47°15' W 122°26'0 0.0
2017-Jun-24 11:30N 47°15' W 122°26'1 2.6
2017-Jun-24 11:00N 47°17' W 122°26'2 3.5
2017-Jun-24 10:28N 47°16' W 122°23'0 1.0
2017-Jun-24 10:00N 47°16' W 122°23'0 0.1
2017-Jun-24 09:30N 47°16' W 122°23'2 3.1
2017-Jun-24 09:00N 47°17' W 122°25'1 2.4
2017-Jun-24 08:25N 47°16' W 122°23'1 0.6
2017-Jun-24 07:07N 47°16' W 122°24'0 1.3
2017-Jun-24 07:00N 47°16' W 122°24'2 3.2
2017-Jun-24 06:30N 47°17' W 122°26'0 0.4
2017-Jun-24 06:00N 47°17' W 122°26'2 3.6
2017-Jun-24 05:30N 47°15' W 122°26'0 0.0
2017-Jun-24 05:00N 47°15' W 122°26'0 0.0
2017-Jun-24 04:30N 47°15' W 122°26'0 0.0
2017-Jun-24 04:00N 47°15' W 122°26'0 0.0
2017-Jun-24 03:30N 47°15' W 122°26'0 0.0
2017-Jun-24 03:00N 47°15' W 122°26'0 0.0
2017-Jun-24 02:30N 47°15' W 122°26'0 0.0
2017-Jun-24 01:59N 47°15' W 122°26'0 0.0
2017-Jun-24 01:30N 47°15' W 122°26'1 2.5
2017-Jun-24 01:00N 47°16' W 122°26'1 1.3
2017-Jun-24 00:30N 47°16' W 122°25'1 1.2
2017-Jun-24 00:00N 47°16' W 122°26'0 0.8
2017-Jun-23 23:30N 47°16' W 122°25'1 2.2
2017-Jun-23 23:01N 47°15' W 122°26'0 0.0
2017-Jun-23 22:30N 47°15' W 122°26'0 0.0
2017-Jun-23 22:00N 47°15' W 122°26'0 0.0
2017-Jun-23 21:30N 47°15' W 122°26'0 0.0
2017-Jun-23 21:00N 47°15' W 122°26'0 0.0
2017-Jun-23 20:28N 47°15' W 122°26'0 0.0
2017-Jun-23 19:28N 47°15' W 122°26'0 0.0
2017-Jun-23 18:57N 47°15' W 122°26'0 0.0
2017-Jun-23 18:21N 47°15' W 122°26'0 0.0
2017-Jun-23 16:34N 47°15' W 122°26'0 0.0
2017-Jun-23 16:31N 47°15' W 122°26'2 3.4
2017-Jun-23 15:58N 47°16' W 122°23'0 0.5
2017-Jun-23 15:20N 47°16' W 122°23'1 2.3
2017-Jun-23 15:00N 47°16' W 122°24'2 2.2
2017-Jun-23 13:59N 47°18' W 122°26'0 0.1
2017-Jun-23 13:30N 47°18' W 122°26'3 2.5
2017-Jun-23 12:13N 47°15' W 122°23'0 0.4
2017-Jun-23 11:26N 47°15' W 122°22'1 2.5
2017-Jun-23 10:59N 47°16' W 122°24'2 3.8
2017-Jun-23 10:31N 47°17' W 122°26'0 0.7
2017-Jun-23 10:01N 47°17' W 122°26'2 3.6
2017-Jun-23 09:30N 47°15' W 122°26'0 0.0
2017-Jun-23 08:59N 47°15' W 122°26'0 0.0
2017-Jun-23 08:30N 47°15' W 122°26'0 0.1
2017-Jun-23 08:00N 47°15' W 122°26'0 0.1
2017-Jun-23 07:30N 47°15' W 122°26'0 0.0
2017-Jun-23 07:00N 47°15' W 122°26'0 0.0
2017-Jun-23 06:25N 47°15' W 122°26'0 0.0
2017-Jun-23 06:00N 47°15' W 122°26'0 0.0
2017-Jun-23 05:30N 47°15' W 122°26'0 0.0
2017-Jun-23 05:00N 47°15' W 122°26'0 0.0
2017-Jun-23 04:30N 47°15' W 122°26'0 0.0
2017-Jun-23 04:00N 47°15' W 122°26'0 0.0
2017-Jun-23 03:30N 47°15' W 122°26'0 0.0
2017-Jun-23 03:00N 47°15' W 122°26'0 0.0
2017-Jun-23 02:30N 47°15' W 122°26'0 0.0
2017-Jun-23 02:00N 47°15' W 122°26'0 0.0
2017-Jun-23 01:30N 47°15' W 122°26'0 0.0
2017-Jun-23 01:01N 47°15' W 122°26'0 0.0
2017-Jun-23 00:30N 47°15' W 122°26'0 0.0
2017-Jun-23 00:00N 47°15' W 122°26'0 0.0
2017-Jun-22 23:30N 47°15' W 122°26'0 0.0
2017-Jun-22 22:57N 47°15' W 122°26'0 0.0
2017-Jun-22 22:31N 47°15' W 122°26'0 0.0
2017-Jun-22 22:01N 47°15' W 122°26'0 0.0
2017-Jun-22 21:28N 47°15' W 122°26'0 0.0
2017-Jun-22 20:59N 47°15' W 122°26'0 0.0
2017-Jun-22 20:27N 47°15' W 122°26'0 0.0
2017-Jun-22 20:00N 47°15' W 122°26'0 0.0
2017-Jun-22 19:30N 47°15' W 122°26'0 0.0
2017-Jun-22 18:49N 47°15' W 122°26'0 0.0
2017-Jun-22 18:30N 47°15' W 122°26'0 0.0
2017-Jun-22 18:00N 47°15' W 122°26'0 0.0
2017-Jun-22 17:30N 47°15' W 122°26'0 0.0
2017-Jun-22 16:59N 47°15' W 122°26'0 0.0
2017-Jun-22 16:29N 47°15' W 122°26'0 0.0
2017-Jun-22 15:59N 47°15' W 122°26'0 0.0
2017-Jun-22 15:31N 47°15' W 122°26'0 0.0
2017-Jun-22 13:48N 47°15' W 122°26'0 0.0
2017-Jun-22 13:26N 47°15' W 122°26'0 0.0
2017-Jun-22 13:00N 47°15' W 122°26'0 0.0
2017-Jun-22 12:30N 47°15' W 122°26'1 2.4
2017-Jun-22 12:00N 47°16' W 122°26'1 1.2
2017-Jun-22 11:21N 47°16' W 122°25'0 0.0
2017-Jun-22 11:00N 47°16' W 122°25'0 0.8
2017-Jun-22 10:30N 47°16' W 122°25'1 2.6
2017-Jun-22 10:00N 47°17' W 122°27'1 2.0
2017-Jun-22 09:30N 47°16' W 122°26'1 2.0
2017-Jun-22 09:00N 47°15' W 122°26'0 0.0
2017-Jun-22 08:30N 47°15' W 122°26'0 0.0
2017-Jun-22 08:00N 47°15' W 122°26'0 0.0
2017-Jun-22 07:22N 47°15' W 122°26'0 0.0
2017-Jun-22 07:00N 47°15' W 122°26'0 0.0
2017-Jun-22 06:27N 47°15' W 122°26'0 0.0
2017-Jun-22 05:52N 47°15' W 122°26'0 0.0
2017-Jun-22 05:29N 47°15' W 122°26'0 0.0
2017-Jun-22 04:01N 47°15' W 122°26'0 0.0
2017-Jun-22 04:00N 47°15' W 122°26'2 3.5
2017-Jun-22 03:30N 47°17' W 122°25'1 2.8
2017-Jun-22 03:00N 47°16' W 122°24'0 0.2
2017-Jun-22 02:28N 47°16' W 122°24'2 3.5
2017-Jun-22 02:00N 47°15' W 122°26'0 0.0
2017-Jun-22 00:48N 47°15' W 122°26'0 0.0
2017-Jun-22 00:30N 47°15' W 122°26'0 0.0
2017-Jun-21 23:57N 47°15' W 122°26'0 0.0
2017-Jun-21 23:28N 47°15' W 122°26'0 0.0
2017-Jun-21 22:59N 47°15' W 122°26'0 0.0
2017-Jun-21 19:02N 47°15' W 122°26'0 0.1
2017-Jun-21 18:57N 47°15' W 122°26'0 0.0
2017-Jun-21 18:17N 47°15' W 122°26'0 0.0
2017-Jun-21 18:00N 47°15' W 122°26'0 0.0
2017-Jun-21 17:30N 47°15' W 122°26'0 0.0
2017-Jun-21 17:00N 47°15' W 122°26'0 0.0
2017-Jun-21 16:30N 47°15' W 122°26'0 0.0
2017-Jun-21 16:00N 47°15' W 122°26'0 0.0
2017-Jun-21 15:19N 47°15' W 122°26'0 0.0
2017-Jun-21 12:57N 47°15' W 122°26'1 2.5
2017-Jun-21 12:30N 47°16' W 122°25'0 1.0
2017-Jun-21 11:59N 47°17' W 122°25'1 1.9
2017-Jun-21 11:30N 47°18' W 122°26'0 0.1
2017-Jun-21 10:57N 47°18' W 122°26'0 0.0
2017-Jun-21 10:30N 47°18' W 122°26'0 0.0
2017-Jun-21 10:00N 47°18' W 122°26'0 0.0
2017-Jun-21 09:26N 47°18' W 122°26'0 0.0
2017-Jun-21 09:00N 47°18' W 122°26'0 0.0
2017-Jun-21 08:30N 47°18' W 122°26'0 0.0
2017-Jun-21 08:00N 47°18' W 122°26'0 0.0
2017-Jun-21 07:30N 47°18' W 122°26'0 0.0
2017-Jun-21 07:00N 47°18' W 122°26'0 0.0
2017-Jun-21 06:30N 47°18' W 122°26'0 0.0
2017-Jun-21 06:00N 47°18' W 122°26'0 0.0
2017-Jun-21 05:30N 47°18' W 122°26'0 0.1
2017-Jun-21 05:00N 47°18' W 122°26'0 0.1
2017-Jun-21 04:30N 47°18' W 122°26'0 0.0
2017-Jun-21 03:56N 47°18' W 122°26'0 0.0
2017-Jun-21 03:29N 47°18' W 122°26'0 0.0
2017-Jun-21 03:00N 47°18' W 122°26'0 0.0
2017-Jun-21 02:30N 47°18' W 122°26'0 0.0
2017-Jun-21 01:59N 47°18' W 122°26'0 0.0
2017-Jun-21 01:30N 47°18' W 122°26'0 0.0
2017-Jun-21 01:00N 47°18' W 122°26'0 0.0
2017-Jun-21 00:30N 47°18' W 122°26'0 0.1
2017-Jun-21 00:00N 47°18' W 122°26'0 0.0
2017-Jun-20 23:30N 47°18' W 122°26'0 0.0
2017-Jun-20 23:00N 47°18' W 122°26'0 0.0
2017-Jun-20 22:29N 47°18' W 122°26'0 0.0
2017-Jun-20 22:00N 47°18' W 122°26'0 0.0
2017-Jun-20 21:29N 47°18' W 122°26'0 0.1
2017-Jun-20 21:00N 47°18' W 122°26'0 0.0
2017-Jun-20 20:30N 47°18' W 122°26'0 0.1
2017-Jun-20 20:00N 47°18' W 122°26'0 0.1
2017-Jun-20 19:30N 47°18' W 122°26'2 1.1
2017-Jun-20 17:48N 47°16' W 122°24'1 3.1
2017-Jun-20 17:30N 47°17' W 122°25'1 2.1
2017-Jun-20 17:00N 47°18' W 122°26'0 0.2
2017-Jun-20 16:30N 47°18' W 122°26'0 0.1
2017-Jun-20 16:00N 47°18' W 122°26'0 0.0
2017-Jun-20 15:30N 47°18' W 122°26'0 0.0
2017-Jun-20 15:00N 47°18' W 122°26'0 0.0
2017-Jun-20 14:00N 47°18' W 122°26'0 0.0
2017-Jun-20 13:30N 47°18' W 122°26'0 0.0
2017-Jun-20 13:00N 47°18' W 122°26'0 0.0
2017-Jun-20 12:30N 47°18' W 122°26'0 0.0
2017-Jun-20 12:00N 47°18' W 122°26'0 0.0
2017-Jun-20 11:29N 47°18' W 122°26'1 1.8
2017-Jun-20 11:00N 47°17' W 122°25'0 0.6
2017-Jun-20 10:30N 47°17' W 122°25'1 2.3
2017-Jun-20 10:00N 47°18' W 122°26'0 0.0
2017-Jun-20 09:30N 47°18' W 122°26'0 0.0
2017-Jun-20 08:59N 47°18' W 122°26'0 0.0
2017-Jun-20 08:30N 47°18' W 122°26'0 0.0
2017-Jun-20 08:00N 47°18' W 122°26'0 0.0
2017-Jun-20 07:29N 47°18' W 122°26'0 0.0
2017-Jun-20 07:00N 47°18' W 122°26'0 0.7
2017-Jun-20 06:30N 47°18' W 122°26'3 6.5
2017-Jun-20 06:00N 47°21' W 122°25'4 7.4
2017-Jun-20 05:30N 47°24' W 122°23'4 8.1
2017-Jun-20 05:01N 47°28' W 122°25'4 8.2
2017-Jun-20 04:30N 47°32' W 122°27'4 7.3
2017-Jun-20 04:00N 47°35' W 122°25'3 5.2
2017-Jun-20 03:30N 47°35' W 122°21'0 0.0
2017-Jun-20 03:00N 47°35' W 122°21'0 0.0
2017-Jun-20 02:30N 47°35' W 122°21'0 0.0
2017-Jun-20 02:00N 47°35' W 122°21'0 0.0
2017-Jun-20 01:31N 47°35' W 122°21'0 0.0
2017-Jun-20 01:00N 47°35' W 122°21'0 0.0
2017-Jun-20 00:30N 47°35' W 122°21'0 0.0
2017-Jun-20 00:00N 47°35' W 122°21'0 0.0
2017-Jun-19 23:30N 47°35' W 122°21'0 0.0
2017-Jun-19 23:00N 47°35' W 122°21'0 0.0
2017-Jun-19 22:30N 47°35' W 122°21'0 0.0
2017-Jun-19 22:01N 47°35' W 122°21'0 0.0
2017-Jun-19 21:30N 47°35' W 122°21'0 0.0
2017-Jun-19 21:00N 47°35' W 122°21'0 0.0
2017-Jun-19 20:30N 47°35' W 122°21'0 0.0
2017-Jun-19 20:00N 47°35' W 122°21'0 0.0
2017-Jun-19 19:30N 47°35' W 122°21'0 0.0
2017-Jun-19 19:00N 47°35' W 122°21'0 0.0
2017-Jun-19 18:30N 47°35' W 122°21'0 0.0
2017-Jun-19 18:00N 47°35' W 122°21'0 0.0
2017-Jun-19 17:30N 47°35' W 122°21'0 0.0
2017-Jun-19 17:00N 47°35' W 122°21'0 0.0
2017-Jun-19 16:30N 47°35' W 122°21'0 0.0
2017-Jun-19 16:00N 47°35' W 122°21'0 0.0
2017-Jun-19 15:30N 47°35' W 122°21'0 0.0
2017-Jun-19 15:00N 47°35' W 122°21'0 0.0
2017-Jun-19 14:00N 47°35' W 122°21'0 0.0
2017-Jun-19 13:30N 47°35' W 122°21'0 0.0
2017-Jun-19 13:00N 47°35' W 122°21'0 0.0
2017-Jun-19 12:31N 47°35' W 122°21'0 0.0
2017-Jun-19 12:00N 47°35' W 122°21'0 0.0
2017-Jun-19 11:30N 47°35' W 122°21'0 0.0
2017-Jun-19 11:00N 47°35' W 122°21'0 0.0
2017-Jun-19 10:30N 47°35' W 122°21'0 0.0
2017-Jun-19 10:00N 47°35' W 122°21'0 0.0
2017-Jun-19 09:30N 47°35' W 122°21'0 0.0
2017-Jun-19 09:00N 47°35' W 122°21'0 0.0
2017-Jun-19 08:30N 47°35' W 122°21'0 0.0
2017-Jun-19 08:00N 47°35' W 122°21'0 0.0
2017-Jun-19 07:30N 47°35' W 122°21'0 0.0
2017-Jun-19 07:00N 47°35' W 122°21'0 0.0
2017-Jun-19 06:30N 47°35' W 122°21'0 0.0
2017-Jun-19 06:00N 47°35' W 122°21'0 0.0
2017-Jun-19 05:30N 47°35' W 122°21'0 0.0
2017-Jun-19 05:00N 47°35' W 122°21'0 0.0
2017-Jun-19 04:30N 47°35' W 122°21'0 0.0
2017-Jun-19 04:00N 47°35' W 122°21'0 0.0
2017-Jun-19 03:30N 47°35' W 122°21'0 0.0
2017-Jun-19 03:00N 47°35' W 122°21'0 0.1
2017-Jun-19 02:31N 47°35' W 122°21'0 0.5
2017-Jun-19 02:00N 47°35' W 122°21'0 0.9
2017-Jun-19 01:31N 47°35' W 122°21'0 0.4
2017-Jun-19 01:00N 47°35' W 122°21'0 0.0
2017-Jun-19 00:30N 47°35' W 122°21'0 0.0
2017-Jun-19 00:00N 47°35' W 122°21'0 0.0
2017-Jun-18 23:30N 47°35' W 122°21'0 0.0
2017-Jun-18 23:00N 47°35' W 122°21'0 0.0
2017-Jun-18 22:30N 47°35' W 122°21'0 0.0
2017-Jun-18 22:00N 47°35' W 122°21'1 1.4
2017-Jun-18 21:30N 47°35' W 122°21'0 0.0
2017-Jun-18 21:01N 47°35' W 122°21'0 0.1
2017-Jun-18 20:31N 47°35' W 122°21'1 1.2
2017-Jun-18 20:00N 47°35' W 122°21'1 1.3
2017-Jun-18 19:30N 47°35' W 122°21'4 7.6
2017-Jun-18 19:00N 47°34' W 122°26'510.5
2017-Jun-18 18:30N 47°29' W 122°24'510.0
2017-Jun-18 18:01N 47°24' W 122°22'4 8.9
2017-Jun-18 17:31N 47°20' W 122°25'4 7.0
2017-Jun-18 17:00N 47°17' W 122°25'2 2.8
2017-Jun-18 16:21N 47°15' W 122°23'0 0.3
2017-Jun-18 15:56N 47°15' W 122°23'0 0.3
2017-Jun-18 15:30N 47°16' W 122°23'2 0.6
2017-Jun-18 12:10N 47°15' W 122°26'0 0.0
2017-Jun-18 11:54N 47°15' W 122°26'0 0.0
2017-Jun-18 11:30N 47°15' W 122°26'0 0.0
2017-Jun-18 10:58N 47°15' W 122°26'0 0.0
2017-Jun-18 10:30N 47°15' W 122°26'0 0.0
2017-Jun-18 10:00N 47°15' W 122°26'0 0.0
2017-Jun-18 09:29N 47°15' W 122°26'0 0.0
2017-Jun-18 09:00N 47°15' W 122°26'0 0.0
2017-Jun-18 08:30N 47°15' W 122°26'0 0.0
2017-Jun-18 08:00N 47°15' W 122°26'0 0.0
2017-Jun-18 07:29N 47°15' W 122°26'0 0.0
2017-Jun-18 06:57N 47°15' W 122°26'0 0.0
2017-Jun-18 06:30N 47°15' W 122°26'0 0.0
2017-Jun-18 06:00N 47°15' W 122°26'0 0.0
2017-Jun-18 05:30N 47°15' W 122°26'0 0.0
2017-Jun-18 05:00N 47°15' W 122°26'0 0.0
2017-Jun-18 04:30N 47°15' W 122°26'0 0.0
2017-Jun-18 04:00N 47°15' W 122°26'0 0.0
2017-Jun-18 03:30N 47°15' W 122°26'0 0.0
2017-Jun-18 02:57N 47°15' W 122°26'0 0.0
2017-Jun-18 02:30N 47°15' W 122°26'0 0.0
2017-Jun-18 01:24N 47°15' W 122°26'1 2.5
2017-Jun-18 00:58N 47°16' W 122°25'0 0.1
2017-Jun-17 23:07N 47°16' W 122°25'0 3.2
2017-Jun-17 23:01N 47°16' W 122°25'0 0.9
2017-Jun-17 22:30N 47°17' W 122°25'1 2.4
2017-Jun-17 22:00N 47°18' W 122°26'2 4.0
2017-Jun-17 21:30N 47°16' W 122°26'0 0.7
2017-Jun-17 21:00N 47°15' W 122°26'0 0.0
2017-Jun-17 20:30N 47°15' W 122°26'0 0.0
2017-Jun-17 19:59N 47°15' W 122°26'0 0.0
2017-Jun-17 19:30N 47°15' W 122°26'0 0.0
2017-Jun-17 19:00N 47°15' W 122°26'0 0.0
2017-Jun-17 18:30N 47°15' W 122°26'0 0.0
2017-Jun-17 18:00N 47°15' W 122°26'0 0.0
2017-Jun-17 17:30N 47°15' W 122°26'0 0.5
2017-Jun-17 17:00N 47°16' W 122°26'2 4.1
2017-Jun-17 16:30N 47°16' W 122°23'2 2.0
2017-Jun-17 15:44N 47°17' W 122°25'1 5.0
2017-Jun-17 15:30N 47°17' W 122°26'0 0.4
2017-Jun-17 15:00N 47°18' W 122°26'0 0.2
2017-Jun-17 14:00N 47°18' W 122°26'0 0.0
2017-Jun-17 13:30N 47°18' W 122°26'0 0.0
2017-Jun-17 12:59N 47°18' W 122°26'0 0.0
2017-Jun-17 12:30N 47°18' W 122°26'0 0.0
2017-Jun-17 11:57N 47°18' W 122°26'0 0.0
2017-Jun-17 11:30N 47°18' W 122°26'0 0.0
2017-Jun-17 11:00N 47°18' W 122°26'0 0.0
2017-Jun-17 10:31N 47°18' W 122°26'2 4.7
2017-Jun-17 10:00N 47°16' W 122°23'0 0.5
2017-Jun-17 09:30N 47°16' W 122°23'3 5.1
2017-Jun-17 09:00N 47°18' W 122°26'0 0.0
2017-Jun-17 08:30N 47°18' W 122°26'0 0.0
2017-Jun-17 08:00N 47°18' W 122°26'0 0.0
2017-Jun-17 07:30N 47°18' W 122°26'0 0.0
2017-Jun-17 06:56N 47°18' W 122°26'1 3.5
2017-Jun-17 06:30N 47°16' W 122°25'0 0.6
2017-Jun-17 06:00N 47°16' W 122°26'1 2.5
2017-Jun-17 05:30N 47°18' W 122°26'0 0.0
2017-Jun-17 05:00N 47°18' W 122°26'0 0.0
2017-Jun-17 04:25N 47°18' W 122°26'2 5.5
2017-Jun-17 03:58N 47°16' W 122°23'0 1.0
2017-Jun-17 03:29N 47°16' W 122°23'0 0.1
2017-Jun-17 02:56N 47°16' W 122°23'2 1.1
2017-Jun-17 01:12N 47°17' W 122°25'1 2.6
2017-Jun-17 01:00N 47°17' W 122°25'2 0.4
2017-Jun-16 21:18N 47°15' W 122°26'0 0.0
2017-Jun-16 20:49N 47°15' W 122°26'0 0.0
2017-Jun-16 20:30N 47°15' W 122°26'0 0.0
2017-Jun-16 19:59N 47°15' W 122°26'0 0.0
2017-Jun-16 19:30N 47°15' W 122°26'0 0.0
2017-Jun-16 18:59N 47°15' W 122°26'  
Track history (hours):
 
Tides and Currents Weather Stations Pressure Air Temp Water Temp Dewpoint Dewpoint Depression Visibility Wind Speed Wind Dir Waves Ship Positions

Guide

Owner: Crowley Marine Services, SEATTLE, WA. More information available from US FCC via Universal Licensing System and Coast Guard Vessel Documentation Center.

Last reported at 2017-Jun-26 18:30 UTC. Time now 2017-Jun-26 18:56 UTC.
Position N 47°18' W 122°27'.

Length 34 m; draft 5.1 m.

Type: Tug. MMSI: 366759530.

Date/timePositionNaut miles runAvg speedWind from/ knotsBaromVisibWave heightAir tempDewpointWater temp
2017-Jun-26 18:30N 47°18' W 122°27'4 7.3
2017-Jun-26 18:00N 47°21' W 122°24'3 6.6
2017-Jun-26 17:31N 47°25' W 122°23'4 8.1
2017-Jun-26 17:00N 47°28' W 122°25'4 7.9
2017-Jun-26 16:31N 47°32' W 122°26'4 7.5
2017-Jun-26 16:00N 47°36' W 122°24'2 4.5
2017-Jun-26 15:30N 47°35' W 122°21'0 0.0
2017-Jun-26 15:00N 47°35' W 122°21'0 0.0
2017-Jun-26 14:30N 47°35' W 122°21'0 0.0
2017-Jun-26 13:30N 47°35' W 122°21'0 0.0
2017-Jun-26 13:00N 47°35' W 122°21'0 0.4
2017-Jun-26 12:30N 47°36' W 122°21'0 0.3
2017-Jun-26 12:00N 47°35' W 122°21'0 0.2
2017-Jun-26 11:30N 47°35' W 122°21'0 0.6
2017-Jun-26 11:00N 47°35' W 122°21'0 0.0
2017-Jun-26 10:30N 47°35' W 122°21'0 0.0
2017-Jun-26 10:00N 47°35' W 122°21'0 0.0
2017-Jun-26 09:30N 47°35' W 122°21'0 0.0
2017-Jun-26 09:00N 47°35' W 122°21'0 0.0
2017-Jun-26 08:30N 47°35' W 122°21'0 0.0
2017-Jun-26 08:00N 47°35' W 122°21'0 0.0
2017-Jun-26 07:30N 47°35' W 122°21'0 0.0
2017-Jun-26 07:00N 47°35' W 122°21'0 0.0
2017-Jun-26 06:30N 47°35' W 122°21'0 0.0
2017-Jun-26 06:00N 47°35' W 122°21'0 0.0
2017-Jun-26 05:30N 47°35' W 122°21'3 5.3
2017-Jun-26 05:01N 47°35' W 122°25'4 8.0
2017-Jun-26 04:31N 47°31' W 122°25'4 8.6
2017-Jun-26 04:00N 47°27' W 122°24'4 8.3
2017-Jun-26 03:30N 47°23' W 122°21'4 7.6
2017-Jun-26 03:00N 47°20' W 122°25'3 6.7
2017-Jun-26 02:30N 47°17' W 122°26'1 2.7
2017-Jun-26 02:00N 47°16' W 122°25'1 1.4
2017-Jun-26 01:30N 47°17' W 122°26'1 1.9
2017-Jun-26 00:56N 47°18' W 122°26'0 0.2
2017-Jun-26 00:25N 47°18' W 122°26'0 0.0
2017-Jun-25 23:58N 47°18' W 122°26'0 0.0
2017-Jun-25 23:30N 47°18' W 122°26'0 0.0
2017-Jun-25 22:59N 47°18' W 122°26'0 0.0
2017-Jun-25 22:30N 47°18' W 122°26'0 0.0
2017-Jun-25 21:58N 47°18' W 122°26'0 0.1
2017-Jun-25 21:30N 47°18' W 122°26'0 0.1
2017-Jun-25 21:00N 47°18' W 122°26'0 0.1
2017-Jun-25 20:26N 47°18' W 122°26'0 0.1
2017-Jun-25 19:53N 47°18' W 122°26'0 0.1
2017-Jun-25 19:30N 47°18' W 122°26'0 0.0
2017-Jun-25 18:59N 47°18' W 122°26'0 0.0
2017-Jun-25 18:30N 47°18' W 122°26'0 0.0
2017-Jun-25 18:00N 47°18' W 122°26'0 0.0
2017-Jun-25 17:30N 47°18' W 122°26'0 0.0
2017-Jun-25 17:00N 47°18' W 122°26'0 0.1
2017-Jun-25 16:25N 47°18' W 122°26'1 3.6
2017-Jun-25 16:00N 47°16' W 122°26'1 1.9
2017-Jun-25 15:30N 47°15' W 122°26'0 0.0
2017-Jun-25 15:00N 47°15' W 122°26'0 0.0
2017-Jun-25 14:30N 47°15' W 122°26'0 0.0
2017-Jun-25 13:30N 47°15' W 122°26'0 0.0
2017-Jun-25 13:00N 47°15' W 122°26'0 0.0
2017-Jun-25 12:30N 47°15' W 122°26'0 0.0
2017-Jun-25 12:00N 47°15' W 122°26'0 0.0
2017-Jun-25 11:30N 47°15' W 122°26'0 0.0
2017-Jun-25 11:00N 47°15' W 122°26'0 0.0
2017-Jun-25 10:30N 47°15' W 122°26'0 0.0
2017-Jun-25 10:00N 47°15' W 122°26'0 0.0
2017-Jun-25 09:30N 47°15' W 122°26'0 0.0
2017-Jun-25 09:00N 47°15' W 122°26'0 0.0
2017-Jun-25 08:30N 47°15' W 122°26'0 0.0
2017-Jun-25 08:00N 47°15' W 122°26'0 0.0
2017-Jun-25 07:30N 47°15' W 122°26'0 0.0
2017-Jun-25 07:00N 47°15' W 122°26'0 0.0
2017-Jun-25 06:30N 47°15' W 122°26'0 0.0
2017-Jun-25 06:00N 47°15' W 122°26'0 0.0
2017-Jun-25 05:30N 47°15' W 122°26'0 0.0
2017-Jun-25 05:00N 47°15' W 122°26'0 0.0
2017-Jun-25 04:30N 47°15' W 122°26'0 0.0
2017-Jun-25 04:00N 47°15' W 122°26'0 0.0
2017-Jun-25 03:30N 47°15' W 122°26'0 0.0
2017-Jun-25 03:00N 47°15' W 122°26'0 0.0
2017-Jun-25 02:30N 47°15' W 122°26'2 3.0
2017-Jun-25 01:59N 47°17' W 122°25'1 1.6
2017-Jun-25 01:24N 47°16' W 122°24'0 0.2
2017-Jun-25 00:58N 47°16' W 122°24'0 0.4
2017-Jun-25 00:30N 47°16' W 122°24'0 0.0
2017-Jun-25 00:00N 47°16' W 122°24'0 0.0
2017-Jun-24 23:30N 47°16' W 122°24'0 0.0
2017-Jun-24 23:00N 47°16' W 122°24'1 1.1
2017-Jun-24 22:30N 47°17' W 122°25'1 1.5
2017-Jun-24 22:00N 47°17' W 122°25'1 1.7
2017-Jun-24 21:30N 47°16' W 122°26'1 1.4
2017-Jun-24 20:41N 47°15' W 122°26'0 0.0
2017-Jun-24 20:29N 47°15' W 122°26'0 0.0
2017-Jun-24 19:59N 47°15' W 122°26'0 0.0
2017-Jun-24 19:08N 47°15' W 122°26'0 0.0
2017-Jun-24 19:00N 47°15' W 122°26'0 0.0
2017-Jun-24 18:28N 47°15' W 122°26'0 0.0
2017-Jun-24 16:59N 47°15' W 122°26'0 0.0
2017-Jun-24 16:19N 47°15' W 122°26'0 0.0
2017-Jun-24 15:56N 47°15' W 122°26'0 0.0
2017-Jun-24 15:29N 47°15' W 122°26'0 0.0
2017-Jun-24 15:00N 47°15' W 122°26'0 0.0
2017-Jun-24 14:00N 47°15' W 122°26'0 0.0
2017-Jun-24 13:30N 47°15' W 122°26'0 0.0
2017-Jun-24 13:00N 47°15' W 122°26'0 0.0
2017-Jun-24 12:30N 47°15' W 122°26'0 0.0
2017-Jun-24 12:00N 47°15' W 122°26'0 0.0
2017-Jun-24 11:30N 47°15' W 122°26'1 2.6
2017-Jun-24 11:00N 47°17' W 122°26'2 3.5
2017-Jun-24 10:28N 47°16' W 122°23'0 1.0
2017-Jun-24 10:00N 47°16' W 122°23'0 0.1
2017-Jun-24 09:30N 47°16' W 122°23'2 3.1
2017-Jun-24 09:00N 47°17' W 122°25'1 2.4
2017-Jun-24 08:25N 47°16' W 122°23'1 0.6
2017-Jun-24 07:07N 47°16' W 122°24'0 1.3
2017-Jun-24 07:00N 47°16' W 122°24'2 3.2
2017-Jun-24 06:30N 47°17' W 122°26'0 0.4
2017-Jun-24 06:00N 47°17' W 122°26'2 3.6
2017-Jun-24 05:30N 47°15' W 122°26'0 0.0
2017-Jun-24 05:00N 47°15' W 122°26'0 0.0
2017-Jun-24 04:30N 47°15' W 122°26'0 0.0
2017-Jun-24 04:00N 47°15' W 122°26'0 0.0
2017-Jun-24 03:30N 47°15' W 122°26'0 0.0
2017-Jun-24 03:00N 47°15' W 122°26'0 0.0
2017-Jun-24 02:30N 47°15' W 122°26'0 0.0
2017-Jun-24 01:59N 47°15' W 122°26'0 0.0
2017-Jun-24 01:30N 47°15' W 122°26'1 2.5
2017-Jun-24 01:00N 47°16' W 122°26'1 1.3
2017-Jun-24 00:30N 47°16' W 122°25'1 1.2
2017-Jun-24 00:00N 47°16' W 122°26'0 0.8
2017-Jun-23 23:30N 47°16' W 122°25'1 2.2
2017-Jun-23 23:01N 47°15' W 122°26'0 0.0
2017-Jun-23 22:30N 47°15' W 122°26'0 0.0
2017-Jun-23 22:00N 47°15' W 122°26'0 0.0
2017-Jun-23 21:30N 47°15' W 122°26'0 0.0
2017-Jun-23 21:00N 47°15' W 122°26'0 0.0
2017-Jun-23 20:28N 47°15' W 122°26'0 0.0
2017-Jun-23 19:28N 47°15' W 122°26'0 0.0
2017-Jun-23 18:57N 47°15' W 122°26'0 0.0
2017-Jun-23 18:21N 47°15' W 122°26'0 0.0
2017-Jun-23 16:34N 47°15' W 122°26'0 0.0
2017-Jun-23 16:31N 47°15' W 122°26'2 3.4
2017-Jun-23 15:58N 47°16' W 122°23'0 0.5
2017-Jun-23 15:20N 47°16' W 122°23'1 2.3
2017-Jun-23 15:00N 47°16' W 122°24'2 2.2
2017-Jun-23 13:59N 47°18' W 122°26'0 0.1
2017-Jun-23 13:30N 47°18' W 122°26'3 2.5
2017-Jun-23 12:13N 47°15' W 122°23'0 0.4
2017-Jun-23 11:26N 47°15' W 122°22'1 2.5
2017-Jun-23 10:59N 47°16' W 122°24'2 3.8
2017-Jun-23 10:31N 47°17' W 122°26'0 0.7
2017-Jun-23 10:01N 47°17' W 122°26'2 3.6
2017-Jun-23 09:30N 47°15' W 122°26'0 0.0
2017-Jun-23 08:59N 47°15' W 122°26'0 0.0
2017-Jun-23 08:30N 47°15' W 122°26'0 0.1
2017-Jun-23 08:00N 47°15' W 122°26'0 0.1
2017-Jun-23 07:30N 47°15' W 122°26'0 0.0
2017-Jun-23 07:00N 47°15' W 122°26'0 0.0
2017-Jun-23 06:25N 47°15' W 122°26'0 0.0
2017-Jun-23 06:00N 47°15' W 122°26'0 0.0
2017-Jun-23 05:30N 47°15' W 122°26'0 0.0
2017-Jun-23 05:00N 47°15' W 122°26'0 0.0
2017-Jun-23 04:30N 47°15' W 122°26'0 0.0
2017-Jun-23 04:00N 47°15' W 122°26'0 0.0
2017-Jun-23 03:30N 47°15' W 122°26'0 0.0
2017-Jun-23 03:00N 47°15' W 122°26'0 0.0
2017-Jun-23 02:30N 47°15' W 122°26'0 0.0
2017-Jun-23 02:00N 47°15' W 122°26'0 0.0
2017-Jun-23 01:30N 47°15' W 122°26'0 0.0
2017-Jun-23 01:01N 47°15' W 122°26'0 0.0
2017-Jun-23 00:30N 47°15' W 122°26'0 0.0
2017-Jun-23 00:00N 47°15' W 122°26'0 0.0
2017-Jun-22 23:30N 47°15' W 122°26'0 0.0
2017-Jun-22 22:57N 47°15' W 122°26'0 0.0
2017-Jun-22 22:31N 47°15' W 122°26'0 0.0
2017-Jun-22 22:01N 47°15' W 122°26'0 0.0
2017-Jun-22 21:28N 47°15' W 122°26'0 0.0
2017-Jun-22 20:59N 47°15' W 122°26'0 0.0
2017-Jun-22 20:27N 47°15' W 122°26'0 0.0
2017-Jun-22 20:00N 47°15' W 122°26'0 0.0
2017-Jun-22 19:30N 47°15' W 122°26'0 0.0
2017-Jun-22 18:49N 47°15' W 122°26'0 0.0
2017-Jun-22 18:30N 47°15' W 122°26'0 0.0
2017-Jun-22 18:00N 47°15' W 122°26'0 0.0
2017-Jun-22 17:30N 47°15' W 122°26'0 0.0
2017-Jun-22 16:59N 47°15' W 122°26'0 0.0
2017-Jun-22 16:29N 47°15' W 122°26'0 0.0
2017-Jun-22 15:59N 47°15' W 122°26'0 0.0
2017-Jun-22 15:31N 47°15' W 122°26'0 0.0
2017-Jun-22 13:48N 47°15' W 122°26'0 0.0
2017-Jun-22 13:26N 47°15' W 122°26'0 0.0
2017-Jun-22 13:00N 47°15' W 122°26'0 0.0
2017-Jun-22 12:30N 47°15' W 122°26'1 2.4
2017-Jun-22 12:00N 47°16' W 122°26'1 1.2
2017-Jun-22 11:21N 47°16' W 122°25'0 0.0
2017-Jun-22 11:00N 47°16' W 122°25'0 0.8
2017-Jun-22 10:30N 47°16' W 122°25'1 2.6
2017-Jun-22 10:00N 47°17' W 122°27'1 2.0
2017-Jun-22 09:30N 47°16' W 122°26'1 2.0
2017-Jun-22 09:00N 47°15' W 122°26'0 0.0
2017-Jun-22 08:30N 47°15' W 122°26'0 0.0
2017-Jun-22 08:00N 47°15' W 122°26'0 0.0
2017-Jun-22 07:22N 47°15' W 122°26'0 0.0
2017-Jun-22 07:00N 47°15' W 122°26'0 0.0
2017-Jun-22 06:27N 47°15' W 122°26'0 0.0
2017-Jun-22 05:52N 47°15' W 122°26'0 0.0
2017-Jun-22 05:29N 47°15' W 122°26'0 0.0
2017-Jun-22 04:01N 47°15' W 122°26'0 0.0
2017-Jun-22 04:00N 47°15' W 122°26'2 3.5
2017-Jun-22 03:30N 47°17' W 122°25'1 2.8
2017-Jun-22 03:00N 47°16' W 122°24'0 0.2
2017-Jun-22 02:28N 47°16' W 122°24'2 3.5
2017-Jun-22 02:00N 47°15' W 122°26'0 0.0
2017-Jun-22 00:48N 47°15' W 122°26'0 0.0
2017-Jun-22 00:30N 47°15' W 122°26'0 0.0
2017-Jun-21 23:57N 47°15' W 122°26'0 0.0
2017-Jun-21 23:28N 47°15' W 122°26'0 0.0
2017-Jun-21 22:59N 47°15' W 122°26'0 0.0
2017-Jun-21 19:02N 47°15' W 122°26'0 0.1
2017-Jun-21 18:57N 47°15' W 122°26'0 0.0
2017-Jun-21 18:17N 47°15' W 122°26'0 0.0
2017-Jun-21 18:00N 47°15' W 122°26'0 0.0
2017-Jun-21 17:30N 47°15' W 122°26'0 0.0
2017-Jun-21 17:00N 47°15' W 122°26'0 0.0
2017-Jun-21 16:30N 47°15' W 122°26'0 0.0
2017-Jun-21 16:00N 47°15' W 122°26'0 0.0
2017-Jun-21 15:19N 47°15' W 122°26'0 0.0
2017-Jun-21 12:57N 47°15' W 122°26'1 2.5
2017-Jun-21 12:30N 47°16' W 122°25'0 1.0
2017-Jun-21 11:59N 47°17' W 122°25'1 1.9
2017-Jun-21 11:30N 47°18' W 122°26'0 0.1
2017-Jun-21 10:57N 47°18' W 122°26'0 0.0
2017-Jun-21 10:30N 47°18' W 122°26'0 0.0
2017-Jun-21 10:00N 47°18' W 122°26'0 0.0
2017-Jun-21 09:26N 47°18' W 122°26'0 0.0
2017-Jun-21 09:00N 47°18' W 122°26'0 0.0
2017-Jun-21 08:30N 47°18' W 122°26'0 0.0
2017-Jun-21 08:00N 47°18' W 122°26'0 0.0
2017-Jun-21 07:30N 47°18' W 122°26'0 0.0
2017-Jun-21 07:00N 47°18' W 122°26'0 0.0
2017-Jun-21 06:30N 47°18' W 122°26'0 0.0
2017-Jun-21 06:00N 47°18' W 122°26'0 0.0
2017-Jun-21 05:30N 47°18' W 122°26'0 0.1
2017-Jun-21 05:00N 47°18' W 122°26'0 0.1
2017-Jun-21 04:30N 47°18' W 122°26'0 0.0
2017-Jun-21 03:56N 47°18' W 122°26'0 0.0
2017-Jun-21 03:29N 47°18' W 122°26'0 0.0
2017-Jun-21 03:00N 47°18' W 122°26'0 0.0
2017-Jun-21 02:30N 47°18' W 122°26'0 0.0
2017-Jun-21 01:59N 47°18' W 122°26'0 0.0
2017-Jun-21 01:30N 47°18' W 122°26'0 0.0
2017-Jun-21 01:00N 47°18' W 122°26'0 0.0
2017-Jun-21 00:30N 47°18' W 122°26'0 0.1
2017-Jun-21 00:00N 47°18' W 122°26'0 0.0
2017-Jun-20 23:30N 47°18' W 122°26'0 0.0
2017-Jun-20 23:00N 47°18' W 122°26'0 0.0
2017-Jun-20 22:29N 47°18' W 122°26'0 0.0
2017-Jun-20 22:00N 47°18' W 122°26'0 0.0
2017-Jun-20 21:29N 47°18' W 122°26'0 0.1
2017-Jun-20 21:00N 47°18' W 122°26'0 0.0
2017-Jun-20 20:30N 47°18' W 122°26'0 0.1
2017-Jun-20 20:00N 47°18' W 122°26'0 0.1
2017-Jun-20 19:30N 47°18' W 122°26'2 1.1
2017-Jun-20 17:48N 47°16' W 122°24'1 3.1
2017-Jun-20 17:30N 47°17' W 122°25'1 2.1
2017-Jun-20 17:00N 47°18' W 122°26'0 0.2
2017-Jun-20 16:30N 47°18' W 122°26'0 0.1
2017-Jun-20 16:00N 47°18' W 122°26'0 0.0
2017-Jun-20 15:30N 47°18' W 122°26'0 0.0
2017-Jun-20 15:00N 47°18' W 122°26'0 0.0
2017-Jun-20 14:00N 47°18' W 122°26'0 0.0
2017-Jun-20 13:30N 47°18' W 122°26'0 0.0
2017-Jun-20 13:00N 47°18' W 122°26'0 0.0
2017-Jun-20 12:30N 47°18' W 122°26'0 0.0
2017-Jun-20 12:00N 47°18' W 122°26'0 0.0
2017-Jun-20 11:29N 47°18' W 122°26'1 1.8
2017-Jun-20 11:00N 47°17' W 122°25'0 0.6
2017-Jun-20 10:30N 47°17' W 122°25'1 2.3
2017-Jun-20 10:00N 47°18' W 122°26'0 0.0
2017-Jun-20 09:30N 47°18' W 122°26'0 0.0
2017-Jun-20 08:59N 47°18' W 122°26'0 0.0
2017-Jun-20 08:30N 47°18' W 122°26'0 0.0
2017-Jun-20 08:00N 47°18' W 122°26'0 0.0
2017-Jun-20 07:29N 47°18' W 122°26'0 0.0
2017-Jun-20 07:00N 47°18' W 122°26'0 0.7
2017-Jun-20 06:30N 47°18' W 122°26'3 6.5
2017-Jun-20 06:00N 47°21' W 122°25'4 7.4
2017-Jun-20 05:30N 47°24' W 122°23'4 8.1
2017-Jun-20 05:01N 47°28' W 122°25'4 8.2
2017-Jun-20 04:30N 47°32' W 122°27'4 7.3
2017-Jun-20 04:00N 47°35' W 122°25'3 5.2
2017-Jun-20 03:30N 47°35' W 122°21'0 0.0
2017-Jun-20 03:00N 47°35' W 122°21'0 0.0
2017-Jun-20 02:30N 47°35' W 122°21'0 0.0
2017-Jun-20 02:00N 47°35' W 122°21'0 0.0
2017-Jun-20 01:31N 47°35' W 122°21'0 0.0
2017-Jun-20 01:00N 47°35' W 122°21'0 0.0
2017-Jun-20 00:30N 47°35' W 122°21'0 0.0
2017-Jun-20 00:00N 47°35' W 122°21'0 0.0
2017-Jun-19 23:30N 47°35' W 122°21'0 0.0
2017-Jun-19 23:00N 47°35' W 122°21'0 0.0
2017-Jun-19 22:30N 47°35' W 122°21'0 0.0
2017-Jun-19 22:01N 47°35' W 122°21'0 0.0
2017-Jun-19 21:30N 47°35' W 122°21'0 0.0
2017-Jun-19 21:00N 47°35' W 122°21'0 0.0
2017-Jun-19 20:30N 47°35' W 122°21'0 0.0
2017-Jun-19 20:00N 47°35' W 122°21'0 0.0
2017-Jun-19 19:30N 47°35' W 122°21'0 0.0
2017-Jun-19 19:00N 47°35' W 122°21'0 0.0
2017-Jun-19 18:30N 47°35' W 122°21'0 0.0
2017-Jun-19 18:00N 47°35' W 122°21'0 0.0
2017-Jun-19 17:30N 47°35' W 122°21'0 0.0
2017-Jun-19 17:00N 47°35' W 122°21'0 0.0
2017-Jun-19 16:30N 47°35' W 122°21'0 0.0
2017-Jun-19 16:00N 47°35' W 122°21'0 0.0
2017-Jun-19 15:30N 47°35' W 122°21'0 0.0
2017-Jun-19 15:00N 47°35' W 122°21'0 0.0
2017-Jun-19 14:00N 47°35' W 122°21'0 0.0
2017-Jun-19 13:30N 47°35' W 122°21'0 0.0
2017-Jun-19 13:00N 47°35' W 122°21'0 0.0
2017-Jun-19 12:31N 47°35' W 122°21'0 0.0
2017-Jun-19 12:00N 47°35' W 122°21'0 0.0
2017-Jun-19 11:30N 47°35' W 122°21'0 0.0
2017-Jun-19 11:00N 47°35' W 122°21'0 0.0
2017-Jun-19 10:30N 47°35' W 122°21'0 0.0
2017-Jun-19 10:00N 47°35' W 122°21'0 0.0
2017-Jun-19 09:30N 47°35' W 122°21'0 0.0
2017-Jun-19 09:00N 47°35' W 122°21'0 0.0
2017-Jun-19 08:30N 47°35' W 122°21'0 0.0
2017-Jun-19 08:00N 47°35' W 122°21'0 0.0
2017-Jun-19 07:30N 47°35' W 122°21'0 0.0
2017-Jun-19 07:00N 47°35' W 122°21'0 0.0
2017-Jun-19 06:30N 47°35' W 122°21'0 0.0
2017-Jun-19 06:00N 47°35' W 122°21'0 0.0
2017-Jun-19 05:30N 47°35' W 122°21'0 0.0
2017-Jun-19 05:00N 47°35' W 122°21'0 0.0
2017-Jun-19 04:30N 47°35' W 122°21'0 0.0
2017-Jun-19 04:00N 47°35' W 122°21'0 0.0
2017-Jun-19 03:30N 47°35' W 122°21'0 0.0
2017-Jun-19 03:00N 47°35' W 122°21'0 0.1
2017-Jun-19 02:31N 47°35' W 122°21'0 0.5
2017-Jun-19 02:00N 47°35' W 122°21'0 0.9
2017-Jun-19 01:31N 47°35' W 122°21'0 0.4
2017-Jun-19 01:00N 47°35' W 122°21'0 0.0
2017-Jun-19 00:30N 47°35' W 122°21'0 0.0
2017-Jun-19 00:00N 47°35' W 122°21'0 0.0
2017-Jun-18 23:30N 47°35' W 122°21'0 0.0
2017-Jun-18 23:00N 47°35' W 122°21'0 0.0
2017-Jun-18 22:30N 47°35' W 122°21'0 0.0
2017-Jun-18 22:00N 47°35' W 122°21'1 1.4
2017-Jun-18 21:30N 47°35' W 122°21'0 0.0
2017-Jun-18 21:01N 47°35' W 122°21'0 0.1
2017-Jun-18 20:31N 47°35' W 122°21'1 1.2
2017-Jun-18 20:00N 47°35' W 122°21'1 1.3
2017-Jun-18 19:30N 47°35' W 122°21'4 7.6
2017-Jun-18 19:00N 47°34' W 122°26'510.5
2017-Jun-18 18:30N 47°29' W 122°24'510.0
2017-Jun-18 18:01N 47°24' W 122°22'4 8.9
2017-Jun-18 17:31N 47°20' W 122°25'4 7.0
2017-Jun-18 17:00N 47°17' W 122°25'2 2.8
2017-Jun-18 16:21N 47°15' W 122°23'0 0.3
2017-Jun-18 15:56N 47°15' W 122°23'0 0.3
2017-Jun-18 15:30N 47°16' W 122°23'2 0.6
2017-Jun-18 12:10N 47°15' W 122°26'0 0.0
2017-Jun-18 11:54N 47°15' W 122°26'0 0.0
2017-Jun-18 11:30N 47°15' W 122°26'0 0.0
2017-Jun-18 10:58N 47°15' W 122°26'0 0.0
2017-Jun-18 10:30N 47°15' W 122°26'0 0.0
2017-Jun-18 10:00N 47°15' W 122°26'0 0.0
2017-Jun-18 09:29N 47°15' W 122°26'0 0.0
2017-Jun-18 09:00N 47°15' W 122°26'0 0.0
2017-Jun-18 08:30N 47°15' W 122°26'0 0.0
2017-Jun-18 08:00N 47°15' W 122°26'0 0.0
2017-Jun-18 07:29N 47°15' W 122°26'0 0.0
2017-Jun-18 06:57N 47°15' W 122°26'0 0.0
2017-Jun-18 06:30N 47°15' W 122°26'0 0.0
2017-Jun-18 06:00N 47°15' W 122°26'0 0.0
2017-Jun-18 05:30N 47°15' W 122°26'0 0.0
2017-Jun-18 05:00N 47°15' W 122°26'0 0.0
2017-Jun-18 04:30N 47°15' W 122°26'0 0.0
2017-Jun-18 04:00N 47°15' W 122°26'0 0.0
2017-Jun-18 03:30N 47°15' W 122°26'0 0.0
2017-Jun-18 02:57N 47°15' W 122°26'0 0.0
2017-Jun-18 02:30N 47°15' W 122°26'0 0.0
2017-Jun-18 01:24N 47°15' W 122°26'1 2.5
2017-Jun-18 00:58N 47°16' W 122°25'0 0.1
2017-Jun-17 23:07N 47°16' W 122°25'0 3.2
2017-Jun-17 23:01N 47°16' W 122°25'0 0.9
2017-Jun-17 22:30N 47°17' W 122°25'1 2.4
2017-Jun-17 22:00N 47°18' W 122°26'2 4.0
2017-Jun-17 21:30N 47°16' W 122°26'0 0.7
2017-Jun-17 21:00N 47°15' W 122°26'0 0.0
2017-Jun-17 20:30N 47°15' W 122°26'0 0.0
2017-Jun-17 19:59N 47°15' W 122°26'0 0.0
2017-Jun-17 19:30N 47°15' W 122°26'0 0.0
2017-Jun-17 19:00N 47°15' W 122°26'0 0.0
2017-Jun-17 18:30N 47°15' W 122°26'0 0.0
2017-Jun-17 18:00N 47°15' W 122°26'0 0.0
2017-Jun-17 17:30N 47°15' W 122°26'0 0.5
2017-Jun-17 17:00N 47°16' W 122°26'2 4.1
2017-Jun-17 16:30N 47°16' W 122°23'2 2.0
2017-Jun-17 15:44N 47°17' W 122°25'1 5.0
2017-Jun-17 15:30N 47°17' W 122°26'0 0.4
2017-Jun-17 15:00N 47°18' W 122°26'0 0.2
2017-Jun-17 14:00N 47°18' W 122°26'0 0.0
2017-Jun-17 13:30N 47°18' W 122°26'0 0.0
2017-Jun-17 12:59N 47°18' W 122°26'0 0.0
2017-Jun-17 12:30N 47°18' W 122°26'0 0.0
2017-Jun-17 11:57N 47°18' W 122°26'0 0.0
2017-Jun-17 11:30N 47°18' W 122°26'0 0.0
2017-Jun-17 11:00N 47°18' W 122°26'0 0.0
2017-Jun-17 10:31N 47°18' W 122°26'2 4.7
2017-Jun-17 10:00N 47°16' W 122°23'0 0.5
2017-Jun-17 09:30N 47°16' W 122°23'3 5.1
2017-Jun-17 09:00N 47°18' W 122°26'0 0.0
2017-Jun-17 08:30N 47°18' W 122°26'0 0.0
2017-Jun-17 08:00N 47°18' W 122°26'0 0.0
2017-Jun-17 07:30N 47°18' W 122°26'0 0.0
2017-Jun-17 06:56N 47°18' W 122°26'1 3.5
2017-Jun-17 06:30N 47°16' W 122°25'0 0.6
2017-Jun-17 06:00N 47°16' W 122°26'1 2.5
2017-Jun-17 05:30N 47°18' W 122°26'0 0.0
2017-Jun-17 05:00N 47°18' W 122°26'0 0.0
2017-Jun-17 04:25N 47°18' W 122°26'2 5.5
2017-Jun-17 03:58N 47°16' W 122°23'0 1.0
2017-Jun-17 03:29N 47°16' W 122°23'0 0.1
2017-Jun-17 02:56N 47°16' W 122°23'2 1.1
2017-Jun-17 01:12N 47°17' W 122°25'1 2.6
2017-Jun-17 01:00N 47°17' W 122°25'2 0.4
2017-Jun-16 21:18N 47°15' W 122°26'0 0.0
2017-Jun-16 20:49N 47°15' W 122°26'0 0.0
2017-Jun-16 20:30N 47°15' W 122°26'0 0.0
2017-Jun-16 19:59N 47°15' W 122°26'0 0.0
2017-Jun-16 19:30N 47°15' W 122°26'0 0.0
2017-Jun-16 18:59N 47°15' W 122°26'  

Dump ship's entire track history